Time;durP1;ratioP1;P1;durP2;ratioP2;P2;SDS_P1;SDS_P2;PMS_P1;PMS_P2;Temp;Humidity;BMP_temperature;BMP_pressure;BME280_temperature;BME280_humidity;BME280_pressure;Samples;Min_cycle;Max_cycle;Signal;HPM_P1;HPM_P2
2022/08/01 00:00:15;;;;;;;;;;;21.40;76.00;;;;;;1998003;28;19937;-73
2022/08/01 00:01:15;;;;;;;;;;;21.40;75.90;;;;;;2005366;28;19956;-73
2022/08/01 00:02:13;;;;;;;;;;;21.40;76.00;;;;;;2005571;28;20008;-72
2022/08/01 00:03:12;;;;;;;;;;;21.40;75.90;;;;;;1998449;28;19913;-72
2022/08/01 00:04:10;;;;;;;;;;;21.40;75.90;;;;;;1989640;28;20024;-74
2022/08/01 00:05:10;;;;;;;;;;;21.40;76.00;;;;;;1990084;28;19906;-73
2022/08/01 00:06:08;;;;;;;;;;;21.40;76.00;;;;;;1997672;28;19906;-73
2022/08/01 00:07:07;;;;;;;;;;;21.40;76.00;;;;;;1998409;28;19920;-73
2022/08/01 00:08:05;;;;;;;;;;;21.40;76.00;;;;;;1998442;28;19913;-73
2022/08/01 00:09:05;;;;;;;;;;;21.40;76.00;;;;;;1998103;28;19988;-73
2022/08/01 00:10:04;;;;;;;;;;;21.40;76.00;;;;;;1998107;28;20376;-73
2022/08/01 00:11:03;;;;;;;;;;;21.40;76.00;;;;;;1998294;28;19971;-74
2022/08/01 00:12:11;;;;;;;;;;;21.40;76.00;;;;;;1998145;28;19905;-71
2022/08/01 00:13:11;;;;;;;;;;;21.40;76.00;;;;;;1998501;28;19980;-72
2022/08/01 00:14:09;;;;;;;;;;;21.40;76.00;;;;;;1998212;28;19906;-72
2022/08/01 00:15:12;;;;;;;;;;;21.40;76.00;;;;;;1998174;28;19918;-73
2022/08/01 00:16:11;;;;;;;;;;;21.40;76.00;;;;;;1997272;28;19964;-72
2022/08/01 00:17:09;;;;;;;;;;;21.40;76.00;;;;;;1997943;28;19968;-74
2022/08/01 00:18:08;;;;;;;;;;;21.40;76.00;;;;;;1998105;28;20010;-73
2022/08/01 00:19:06;;;;;;;;;;;21.40;76.00;;;;;;2005160;28;20280;-73
2022/08/01 00:20:06;;;;;;;;;;;21.40;76.00;;;;;;2005209;28;19913;-73
2022/08/01 00:21:07;;;;;;;;;;;21.40;76.00;;;;;;1997687;28;19992;-74
2022/08/01 00:22:06;;;;;;;;;;;21.40;76.00;;;;;;1997937;28;19949;-72
2022/08/01 00:23:04;;;;;;;;;;;21.40;76.00;;;;;;1997720;28;20361;-73
2022/08/01 00:24:03;;;;;;;;;;;21.40;76.10;;;;;;1997943;28;19906;-72
2022/08/01 00:25:02;;;;;;;;;;;21.40;76.00;;;;;;1997871;28;19906;-73
2022/08/01 00:26:01;;;;;;;;;;;21.40;76.00;;;;;;1997997;28;19913;-72
2022/08/01 00:26:59;;;;;;;;;;;21.40;76.00;;;;;;1997762;28;19905;-74
2022/08/01 00:27:58;;;;;;;;;;;21.40;76.10;;;;;;1997913;28;19913;-73
2022/08/01 00:28:57;;;;;;;;;;;21.40;76.10;;;;;;2005057;28;19905;-74
2022/08/01 00:29:55;;;;;;;;;;;21.40;76.80;;;;;;2005077;28;19968;-74
2022/08/01 00:30:54;;;;;;;;;;;21.40;76.00;;;;;;1998144;28;19972;-73
2022/08/01 00:31:53;;;;;;;;;;;21.40;76.20;;;;;;1997878;28;19913;-73
2022/08/01 00:32:52;;;;;;;;;;;21.40;76.10;;;;;;1997915;28;19906;-74
2022/08/01 00:33:50;;;;;;;;;;;21.40;76.00;;;;;;1997661;28;19964;-73
2022/08/01 00:34:49;;;;;;;;;;;21.40;76.10;;;;;;1997963;28;19928;-73
2022/08/01 00:35:47;;;;;;;;;;;21.40;76.00;;;;;;2004826;28;19909;-73
2022/08/01 00:36:46;;;;;;;;;;;21.40;76.00;;;;;;2005139;28;19909;-73
2022/08/01 00:37:46;;;;;;;;;;;21.40;76.70;;;;;;1998202;28;19905;-74
2022/08/01 00:38:44;;;;;;;;;;;21.40;76.10;;;;;;1997687;28;19906;-74
2022/08/01 00:39:43;;;;;;;;;;;21.40;76.00;;;;;;1997855;28;20368;-74
2022/08/01 00:40:41;;;;;;;;;;;21.40;76.10;;;;;;2004883;28;20344;-73
2022/08/01 00:41:40;;;;;;;;;;;21.40;76.00;;;;;;2005223;28;20044;-73
2022/08/01 00:42:39;;;;;;;;;;;21.40;76.00;;;;;;1998311;28;20401;-73
2022/08/01 00:43:38;;;;;;;;;;;21.40;76.10;;;;;;1997664;28;19906;-73
2022/08/01 00:44:37;;;;;;;;;;;21.40;76.00;;;;;;2005052;28;19910;-73
2022/08/01 00:45:36;;;;;;;;;;;21.40;76.00;;;;;;2005096;28;20016;-73
2022/08/01 00:46:36;;;;;;;;;;;21.40;76.00;;;;;;1997966;28;20048;-74
2022/08/01 00:47:34;;;;;;;;;;;21.40;76.00;;;;;;1997782;28;19912;-73
2022/08/01 00:48:33;;;;;;;;;;;21.40;76.00;;;;;;1997820;28;19913;-72
2022/08/01 00:49:31;;;;;;;;;;;21.40;76.00;;;;;;1997734;28;19906;-72
2022/08/01 00:50:30;;;;;;;;;;;21.40;76.00;;;;;;2004811;28;19905;-72
2022/08/01 00:51:30;;;;;;;;;;;21.40;76.00;;;;;;2004831;28;19909;-72
2022/08/01 00:52:29;;;;;;;;;;;21.40;76.00;;;;;;1998109;28;19988;-73
2022/08/01 00:53:29;;;;;;;;;;;21.40;76.00;;;;;;1997693;28;19982;-73
2022/08/01 00:54:28;;;;;;;;;;;21.40;76.00;;;;;;1997799;28;19905;-73
2022/08/01 00:55:26;;;;;;;;;;;21.40;76.70;;;;;;2004803;28;19941;-73
2022/08/01 00:56:27;;;;;;;;;;;21.40;76.00;;;;;;1996911;28;19917;-74
2022/08/01 00:57:26;;;;;;;;;;;21.40;76.10;;;;;;1989356;28;20320;-73
2022/08/01 00:58:24;;;;;;;;;;;21.40;76.10;;;;;;1996786;28;19910;-74
2022/08/01 00:59:23;;;;;;;;;;;21.40;76.10;;;;;;1997582;28;20272;-74
2022/08/01 01:00:23;;;;;;;;;;;21.40;76.10;;;;;;1997654;28;19909;-74
2022/08/01 01:01:23;;;;;;;;;;;21.40;76.00;;;;;;1997604;28;19916;-73
2022/08/01 01:02:26;;;;;;;;;;;21.40;76.00;;;;;;1997859;28;19956;-72
2022/08/01 01:03:25;;;;;;;;;;;21.40;76.00;;;;;;1997577;28;19906;-74
2022/08/01 01:04:23;;;;;;;;;;;21.40;76.00;;;;;;2004966;28;20409;-72
2022/08/01 01:05:22;;;;;;;;;;;21.40;76.00;;;;;;1996933;28;19972;-74
2022/08/01 01:06:30;;;;;;;;;;;21.40;76.70;;;;;;1989057;28;19949;-74
2022/08/01 01:07:44;;;;;;;;;;;21.40;76.10;;;;;;1998409;28;19968;-74
2022/08/01 01:08:50;;;;;;;;;;;21.40;76.10;;;;;;1997819;28;19912;-73
2022/08/01 01:10:09;;;;;;;;;;;21.40;76.10;;;;;;1998166;28;19933;-74
2022/08/01 01:11:10;;;;;;;;;;;21.40;76.10;;;;;;1997878;28;19960;-73
2022/08/01 01:12:08;;;;;;;;;;;21.40;76.00;;;;;;1998107;28;19913;-72
2022/08/01 01:13:25;;;;;;;;;;;21.40;76.10;;;;;;1998129;28;19948;-73
2022/08/01 01:14:46;;;;;;;;;;;21.40;76.10;;;;;;1997746;28;19905;-72
2022/08/01 01:15:47;;;;;;;;;;;21.40;76.20;;;;;;1997666;28;19917;-72
2022/08/01 01:16:46;;;;;;;;;;;21.40;76.20;;;;;;1997599;28;19906;-73
2022/08/01 01:18:07;;;;;;;;;;;21.40;76.10;;;;;;2004880;28;19910;-73
2022/08/01 01:19:08;;;;;;;;;;;21.40;76.10;;;;;;2002515;28;19905;-72
2022/08/01 01:20:08;;;;;;;;;;;21.40;76.10;;;;;;1998277;28;20004;-73
2022/08/01 01:21:18;;;;;;;;;;;21.40;76.10;;;;;;1997510;28;19928;-72
2022/08/01 01:22:21;;;;;;;;;;;21.40;76.10;;;;;;2004483;28;19905;-72
2022/08/01 01:23:32;;;;;;;;;;;21.40;76.20;;;;;;2004762;28;20289;-72
2022/08/01 01:24:44;;;;;;;;;;;21.40;76.10;;;;;;1997649;28;19980;-72
2022/08/01 01:25:51;;;;;;;;;;;21.40;76.20;;;;;;1997489;28;20276;-72
2022/08/01 01:27:08;;;;;;;;;;;21.40;76.20;;;;;;1997472;28;19912;-72
2022/08/01 01:28:14;;;;;;;;;;;21.40;76.20;;;;;;1997434;28;19913;-73
2022/08/01 01:29:25;;;;;;;;;;;21.40;76.10;;;;;;2004683;28;19948;-72
2022/08/01 01:30:27;;;;;;;;;;;21.40;76.20;;;;;;2003881;28;20027;-73
2022/08/01 01:31:26;;;;;;;;;;;21.40;76.10;;;;;;1997623;28;20285;-73
2022/08/01 01:32:25;;;;;;;;;;;21.40;76.10;;;;;;1997630;28;19913;-72
2022/08/01 01:33:49;;;;;;;;;;;21.40;76.20;;;;;;1998136;28;19905;-73
2022/08/01 01:34:50;;;;;;;;;;;21.40;76.20;;;;;;1998225;28;19955;-73
2022/08/01 01:35:49;;;;;;;;;;;21.40;76.20;;;;;;1997318;28;19909;-74
2022/08/01 01:36:48;;;;;;;;;;;21.40;76.20;;;;;;1997320;28;20373;-73
2022/08/01 01:37:48;;;;;;;;;;;21.40;76.20;;;;;;1997244;28;19909;-73
2022/08/01 01:38:47;;;;;;;;;;;21.40;76.20;;;;;;1997495;28;19912;-73
2022/08/01 01:39:47;;;;;;;;;;;21.40;76.10;;;;;;1997421;28;20002;-72
2022/08/01 01:40:47;;;;;;;;;;;21.40;76.10;;;;;;1997260;28;19906;-73
2022/08/01 01:41:46;;;;;;;;;;;21.40;76.10;;;;;;1988748;28;20418;-73
2022/08/01 01:42:46;;;;;;;;;;;21.40;76.20;;;;;;1988898;28;20298;-73
2022/08/01 01:43:46;;;;;;;;;;;21.40;76.10;;;;;;1997023;28;19906;-73
2022/08/01 01:44:47;;;;;;;;;;;21.40;76.20;;;;;;1997331;28;19906;-73
2022/08/01 01:45:47;;;;;;;;;;;21.40;76.20;;;;;;1997245;28;19988;-73
2022/08/01 01:46:46;;;;;;;;;;;21.40;76.20;;;;;;1997434;28;19905;-73
2022/08/01 01:47:45;;;;;;;;;;;21.40;76.10;;;;;;1997426;28;19956;-73
2022/08/01 01:48:44;;;;;;;;;;;21.40;76.20;;;;;;1997363;28;19906;-73
2022/08/01 01:49:46;;;;;;;;;;;21.40;76.20;;;;;;1997483;28;19982;-73
2022/08/01 01:50:46;;;;;;;;;;;21.40;76.20;;;;;;2004497;28;19981;-73
2022/08/01 01:51:46;;;;;;;;;;;21.40;76.20;;;;;;2004541;28;19909;-73
2022/08/01 01:52:45;;;;;;;;;;;21.40;76.20;;;;;;1997483;28;19956;-74
2022/08/01 01:53:44;;;;;;;;;;;21.40;76.20;;;;;;2004557;28;20240;-72
2022/08/01 01:54:49;;;;;;;;;;;21.40;76.20;;;;;;2004629;28;20385;-72
2022/08/01 01:55:49;;;;;;;;;;;21.40;76.20;;;;;;1989051;28;20273;-73
2022/08/01 01:56:49;;;;;;;;;;;21.40;76.20;;;;;;1989038;28;19922;-73
2022/08/01 01:57:49;;;;;;;;;;;21.40;76.20;;;;;;1997430;28;20370;-72
2022/08/01 01:58:49;;;;;;;;;;;21.40;76.20;;;;;;1997441;28;20278;-72
2022/08/01 02:00:14;;;;;;;;;;;21.40;76.10;;;;;;1997278;28;20164;-73
2022/08/01 02:01:15;;;;;;;;;;;21.40;76.20;;;;;;1995767;28;20395;-73
2022/08/01 02:02:15;;;;;;;;;;;21.40;76.20;;;;;;1997221;28;19997;-71
2022/08/01 02:03:15;;;;;;;;;;;21.40;76.30;;;;;;1997263;28;20431;-72
2022/08/01 02:04:14;;;;;;;;;;;21.40;76.20;;;;;;1988696;28;19906;-72
2022/08/01 02:05:15;;;;;;;;;;;21.40;76.20;;;;;;1988825;28;19914;-72
2022/08/01 02:06:15;;;;;;;;;;;21.40;76.20;;;;;;1996989;28;19906;-73
2022/08/01 02:07:17;;;;;;;;;;;21.40;76.30;;;;;;2004457;28;19906;-72
2022/08/01 02:08:17;;;;;;;;;;;21.40;76.30;;;;;;2004389;28;19905;-72
2022/08/01 02:09:18;;;;;;;;;;;21.40;76.30;;;;;;1997235;28;20266;-72
2022/08/01 02:10:17;;;;;;;;;;;21.40;76.20;;;;;;1997208;28;19916;-74
2022/08/01 02:11:21;;;;;;;;;;;21.40;76.20;;;;;;1997129;28;20280;-72
2022/08/01 02:12:21;;;;;;;;;;;21.40;76.20;;;;;;1997261;28;19906;-72
2022/08/01 02:13:20;;;;;;;;;;;21.40;76.20;;;;;;1997139;28;19906;-73
2022/08/01 02:14:19;;;;;;;;;;;21.40;76.20;;;;;;1997160;28;19906;-72
2022/08/01 02:15:19;;;;;;;;;;;21.40;76.30;;;;;;1996972;28;20365;-72
2022/08/01 02:16:20;;;;;;;;;;;21.40;76.20;;;;;;1996991;28;19988;-71
2022/08/01 02:17:19;;;;;;;;;;;21.40;76.30;;;;;;1997086;28;19960;-73
2022/08/01 02:18:17;;;;;;;;;;;21.40;76.30;;;;;;1997262;28;19906;-72
2022/08/01 02:19:19;;;;;;;;;;;21.40;76.30;;;;;;1997112;28;20254;-72
2022/08/01 02:20:18;;;;;;;;;;;21.40;76.20;;;;;;1997051;28;19906;-72
2022/08/01 02:21:19;;;;;;;;;;;21.40;76.20;;;;;;2004376;28;20007;-72
2022/08/01 02:22:20;;;;;;;;;;;21.40;76.30;;;;;;2004353;28;19949;-72
2022/08/01 02:23:21;;;;;;;;;;;21.40;76.30;;;;;;1997088;28;19913;-72
2022/08/01 02:24:33;;;;;;;;;;;21.40;76.30;;;;;;1997133;28;19980;-72
2022/08/01 02:25:52;;;;;;;;;;;21.40;76.30;;;;;;1997243;28;19906;-72
2022/08/01 02:26:52;;;;;;;;;;;21.40;76.30;;;;;;1997207;28;20384;-73
2022/08/01 02:28:03;;;;;;;;;;;21.40;76.30;;;;;;1996995;28;19910;-73
2022/08/01 02:29:05;;;;;;;;;;;21.40;76.40;;;;;;1997273;28;19910;-73
2022/08/01 02:30:05;;;;;;;;;;;21.40;76.30;;;;;;1996961;28;19906;-73
2022/08/01 02:31:06;;;;;;;;;;;21.40;76.30;;;;;;1996916;28;20332;-73
2022/08/01 02:32:06;;;;;;;;;;;21.40;76.30;;;;;;2004189;28;19905;-73
2022/08/01 02:33:25;;;;;;;;;;;21.40;76.30;;;;;;2004395;28;19992;-73
2022/08/01 02:34:25;;;;;;;;;;;21.40;76.30;;;;;;1996796;28;19987;-73
2022/08/01 02:35:26;;;;;;;;;;;21.40;76.40;;;;;;1997011;28;19906;-72
2022/08/01 02:36:27;;;;;;;;;;;21.40;76.30;;;;;;1997014;28;19988;-72
2022/08/01 02:37:28;;;;;;;;;;;21.40;76.40;;;;;;1996984;28;19910;-72
2022/08/01 02:38:28;;;;;;;;;;;21.40;76.40;;;;;;1996995;28;19912;-73
2022/08/01 02:39:28;;;;;;;;;;;21.40;76.40;;;;;;1997054;28;19922;-72
2022/08/01 02:40:27;;;;;;;;;;;21.40;76.30;;;;;;1997061;28;19905;-72
2022/08/01 02:41:26;;;;;;;;;;;21.40;77.00;;;;;;1997076;28;20036;-73
2022/08/01 02:42:26;;;;;;;;;;;21.40;76.30;;;;;;1997393;28;19906;-72
2022/08/01 02:43:26;;;;;;;;;;;21.40;76.40;;;;;;1997565;28;19933;-72
2022/08/01 02:44:26;;;;;;;;;;;21.40;76.40;;;;;;1997070;28;19940;-72
2022/08/01 02:45:26;;;;;;;;;;;21.40;76.50;;;;;;1997025;28;19929;-73
2022/08/01 02:46:37;;;;;;;;;;;21.40;76.50;;;;;;1989066;28;20251;-73
2022/08/01 02:47:37;;;;;;;;;;;21.40;76.40;;;;;;1990156;28;20277;-73
2022/08/01 02:48:36;;;;;;;;;;;21.40;76.30;;;;;;1996976;28;19912;-73
2022/08/01 02:49:41;;;;;;;;;;;21.40;76.40;;;;;;1997050;28;19906;-73
2022/08/01 02:50:43;;;;;;;;;;;21.40;76.40;;;;;;1996822;28;19952;-73
2022/08/01 02:51:43;;;;;;;;;;;21.40;76.40;;;;;;1996840;28;20028;-73
2022/08/01 02:52:43;;;;;;;;;;;21.40;76.40;;;;;;1996815;28;19952;-73
2022/08/01 02:53:42;;;;;;;;;;;21.40;76.50;;;;;;1996939;28;19933;-73
2022/08/01 02:54:41;;;;;;;;;;;21.40;76.40;;;;;;1996952;28;19906;-73
2022/08/01 02:55:40;;;;;;;;;;;21.40;76.50;;;;;;1996711;28;20234;-73
2022/08/01 02:56:40;;;;;;;;;;;21.40;76.50;;;;;;1996711;28;19905;-73
2022/08/01 02:57:39;;;;;;;;;;;21.40;76.50;;;;;;1996950;28;19985;-73
2022/08/01 02:58:38;;;;;;;;;;;21.40;76.50;;;;;;1997025;28;19906;-72
2022/08/01 02:59:37;;;;;;;;;;;21.40;76.50;;;;;;1996825;28;19953;-72
2022/08/01 03:00:36;;;;;;;;;;;21.40;76.50;;;;;;1996867;28;19909;-72
2022/08/01 03:01:35;;;;;;;;;;;21.40;76.50;;;;;;1997016;28;20357;-72
2022/08/01 03:02:34;;;;;;;;;;;21.40;76.50;;;;;;1996800;28;20067;-72
2022/08/01 03:03:33;;;;;;;;;;;21.40;76.40;;;;;;1996908;28;20353;-72
2022/08/01 03:04:33;;;;;;;;;;;21.40;76.50;;;;;;1996908;28;19945;-73
2022/08/01 03:05:33;;;;;;;;;;;21.40;76.50;;;;;;1996945;28;19909;-74
2022/08/01 03:06:32;;;;;;;;;;;21.40;76.50;;;;;;1996943;28;19909;-73
2022/08/01 03:07:31;;;;;;;;;;;21.40;76.40;;;;;;1996921;28;20190;-73
2022/08/01 03:08:30;;;;;;;;;;;21.40;76.50;;;;;;1997002;28;20093;-73
2022/08/01 03:09:29;;;;;;;;;;;21.40;76.50;;;;;;1996898;28;20333;-73
2022/08/01 03:10:29;;;;;;;;;;;21.40;76.40;;;;;;1996845;28;19906;-73
2022/08/01 03:11:29;;;;;;;;;;;21.40;76.50;;;;;;1996870;28;20369;-74
2022/08/01 03:12:29;;;;;;;;;;;21.40;76.40;;;;;;2003412;28;20411;-74
2022/08/01 03:13:29;;;;;;;;;;;21.40;76.50;;;;;;2004214;28;19906;-72
2022/08/01 03:14:29;;;;;;;;;;;21.40;76.50;;;;;;1996919;28;19906;-71
2022/08/01 03:15:30;;;;;;;;;;;21.40;76.40;;;;;;1996778;28;19941;-73
2022/08/01 03:16:31;;;;;;;;;;;21.40;76.50;;;;;;1996865;28;19910;-73
2022/08/01 03:17:30;;;;;;;;;;;21.40;76.50;;;;;;1996821;28;19913;-72
2022/08/01 03:18:29;;;;;;;;;;;21.40;76.50;;;;;;1997023;28;19913;-74
2022/08/01 03:19:29;;;;;;;;;;;21.40;76.40;;;;;;1996875;28;19906;-72
2022/08/01 03:20:29;;;;;;;;;;;21.40;76.50;;;;;;1996757;28;19906;-74
2022/08/01 03:21:28;;;;;;;;;;;21.40;76.50;;;;;;1996799;28;20341;-73
2022/08/01 03:22:27;;;;;;;;;;;21.40;76.40;;;;;;1996878;28;19944;-73
2022/08/01 03:23:27;;;;;;;;;;;21.40;76.50;;;;;;1996895;28;19912;-72
2022/08/01 03:24:26;;;;;;;;;;;21.40;76.50;;;;;;1996699;28;19905;-72
2022/08/01 03:25:25;;;;;;;;;;;21.40;76.50;;;;;;2003980;28;19905;-74
2022/08/01 03:26:26;;;;;;;;;;;21.40;76.50;;;;;;1996187;28;19905;-73
2022/08/01 03:27:25;;;;;;;;;;;21.40;76.50;;;;;;1988677;28;19906;-73
2022/08/01 03:28:24;;;;;;;;;;;21.40;76.50;;;;;;1996373;28;19940;-73
2022/08/01 03:29:25;;;;;;;;;;;21.40;76.50;;;;;;1997040;28;20325;-74
2022/08/01 03:30:26;;;;;;;;;;;21.40;76.40;;;;;;1998529;28;20320;-74
2022/08/01 03:31:25;;;;;;;;;;;21.40;76.50;;;;;;1998253;28;20004;-74
2022/08/01 03:32:24;;;;;;;;;;;21.40;76.50;;;;;;1998273;28;20296;-74
2022/08/01 03:33:23;;;;;;;;;;;21.40;76.50;;;;;;1998396;28;19960;-73
2022/08/01 03:34:21;;;;;;;;;;;21.40;76.50;;;;;;1998319;28;19918;-72
2022/08/01 03:35:22;;;;;;;;;;;21.40;76.50;;;;;;1998296;28;19916;-73
2022/08/01 03:36:25;;;;;;;;;;;21.40;76.50;;;;;;2005425;28;19917;-72
2022/08/01 03:37:28;;;;;;;;;;;21.40;76.50;;;;;;2005538;28;20403;-72
2022/08/01 03:38:28;;;;;;;;;;;21.40;76.50;;;;;;1998404;28;20335;-73
2022/08/01 03:39:29;;;;;;;;;;;21.40;76.50;;;;;;1998447;28;20373;-73
2022/08/01 03:40:35;;;;;;;;;;;21.40;76.50;;;;;;1998210;28;19906;-72
2022/08/01 03:41:36;;;;;;;;;;;21.40;76.50;;;;;;1998212;28;20385;-73
2022/08/01 03:42:41;;;;;;;;;;;21.40;76.50;;;;;;1998438;28;20349;-73
2022/08/01 03:43:47;;;;;;;;;;;21.40;76.50;;;;;;1998245;28;20040;-72
2022/08/01 03:44:48;;;;;;;;;;;21.40;77.20;;;;;;1998211;28;19913;-73
2022/08/01 03:45:49;;;;;;;;;;;21.40;76.50;;;;;;1998274;28;19933;-73
2022/08/01 03:46:48;;;;;;;;;;;21.40;76.50;;;;;;1998289;28;19913;-73
2022/08/01 03:47:48;;;;;;;;;;;21.40;76.40;;;;;;1998247;28;19905;-73
2022/08/01 03:48:48;;;;;;;;;;;21.40;76.50;;;;;;1998310;28;19928;-73
2022/08/01 03:49:48;;;;;;;;;;;21.40;76.50;;;;;;1998277;28;20253;-74
2022/08/01 03:50:47;;;;;;;;;;;21.40;76.50;;;;;;1998373;28;19906;-72
2022/08/01 03:51:49;;;;;;;;;;;21.40;76.60;;;;;;1998242;28;20247;-73
2022/08/01 03:52:49;;;;;;;;;;;21.40;76.50;;;;;;1998486;28;20272;-73
2022/08/01 03:53:49;;;;;;;;;;;21.40;76.50;;;;;;1998191;28;19913;-73
2022/08/01 03:54:51;;;;;;;;;;;21.40;76.50;;;;;;1998240;28;19906;-73
2022/08/01 03:55:50;;;;;;;;;;;21.40;76.50;;;;;;1998108;28;19956;-73
2022/08/01 03:56:50;;;;;;;;;;;21.40;76.50;;;;;;1998418;28;19906;-73
2022/08/01 03:57:49;;;;;;;;;;;21.40;76.50;;;;;;1998289;28;19906;-73
2022/08/01 03:58:48;;;;;;;;;;;21.40;76.80;;;;;;1998270;28;19992;-73
2022/08/01 03:59:48;;;;;;;;;;;21.40;76.50;;;;;;1998415;28;19906;-72
2022/08/01 04:00:47;;;;;;;;;;;21.40;76.50;;;;;;1998444;28;19906;-73
2022/08/01 04:01:46;;;;;;;;;;;21.40;76.50;;;;;;2005455;28;20401;-73
2022/08/01 04:02:48;;;;;;;;;;;21.40;76.50;;;;;;2005654;28;19912;-73
2022/08/01 04:03:46;;;;;;;;;;;21.40;76.50;;;;;;1998444;28;19906;-73
2022/08/01 04:04:45;;;;;;;;;;;21.40;76.50;;;;;;1998173;28;19912;-73
2022/08/01 04:05:44;;;;;;;;;;;21.40;76.60;;;;;;1998342;28;19909;-73
2022/08/01 04:06:50;;;;;;;;;;;21.40;76.50;;;;;;1998119;28;20250;-72
2022/08/01 04:07:55;;;;;;;;;;;21.40;76.50;;;;;;1998397;28;19988;-72
2022/08/01 04:08:57;;;;;;;;;;;21.40;76.50;;;;;;1998134;28;19906;-73
2022/08/01 04:09:55;;;;;;;;;;;21.40;76.50;;;;;;1998167;28;20235;-72
2022/08/01 04:10:54;;;;;;;;;;;21.40;76.50;;;;;;2005161;28;19937;-72
2022/08/01 04:11:52;;;;;;;;;;;21.30;76.50;;;;;;2005350;28;20020;-72
2022/08/01 04:12:51;;;;;;;;;;;21.40;76.60;;;;;;1998458;28;19917;-73
2022/08/01 04:13:52;;;;;;;;;;;21.40;76.60;;;;;;1997877;28;19906;-73
2022/08/01 04:14:51;;;;;;;;;;;21.40;76.50;;;;;;1997873;28;19909;-73
2022/08/01 04:15:50;;;;;;;;;;;21.40;76.60;;;;;;1998171;28;19908;-73
2022/08/01 04:16:48;;;;;;;;;;;21.30;76.40;;;;;;1998090;28;20368;-73
2022/08/01 04:17:47;;;;;;;;;;;21.40;76.50;;;;;;1998048;28;19937;-72
2022/08/01 04:18:45;;;;;;;;;;;21.40;76.50;;;;;;1998193;28;19937;-72
2022/08/01 04:19:44;;;;;;;;;;;21.40;76.50;;;;;;1998061;28;19960;-72
2022/08/01 04:20:43;;;;;;;;;;;21.40;76.50;;;;;;1998063;28;19910;-73
2022/08/01 04:21:41;;;;;;;;;;;21.40;76.50;;;;;;1998027;28;19910;-73
2022/08/01 04:22:40;;;;;;;;;;;21.40;76.60;;;;;;2005174;28;19966;-71
2022/08/01 04:23:40;;;;;;;;;;;21.40;76.60;;;;;;2005272;28;20400;-72
2022/08/01 04:24:39;;;;;;;;;;;21.40;76.60;;;;;;1998442;28;19913;-73
2022/08/01 04:25:39;;;;;;;;;;;21.30;76.50;;;;;;1998008;28;20376;-72
2022/08/01 04:26:39;;;;;;;;;;;21.30;76.80;;;;;;1998116;28;19953;-73
2022/08/01 04:27:39;;;;;;;;;;;21.40;76.50;;;;;;1997913;28;20254;-73
2022/08/01 04:28:39;;;;;;;;;;;21.40;76.50;;;;;;1997918;28;19910;-73
2022/08/01 04:29:38;;;;;;;;;;;21.40;76.50;;;;;;1998005;28;19906;-73
2022/08/01 04:30:37;;;;;;;;;;;21.40;76.50;;;;;;1997783;28;19949;-73
2022/08/01 04:31:36;;;;;;;;;;;21.30;76.50;;;;;;1997835;28;19957;-73
2022/08/01 04:32:37;;;;;;;;;;;21.40;76.60;;;;;;1998535;28;19906;-73
2022/08/01 04:33:37;;;;;;;;;;;21.40;76.50;;;;;;2005286;28;19975;-73
2022/08/01 04:34:37;;;;;;;;;;;21.40;76.50;;;;;;2005075;28;19916;-72
2022/08/01 04:35:37;;;;;;;;;;;21.40;76.50;;;;;;1998056;28;19956;-72
2022/08/01 04:36:36;;;;;;;;;;;21.40;76.60;;;;;;1997953;28;20350;-73
2022/08/01 04:37:36;;;;;;;;;;;21.30;76.50;;;;;;1998011;28;19928;-73
2022/08/01 04:38:38;;;;;;;;;;;21.40;76.50;;;;;;1998081;28;20281;-73
2022/08/01 04:39:37;;;;;;;;;;;21.40;76.60;;;;;;1998086;28;19910;-73
2022/08/01 04:40:36;;;;;;;;;;;21.40;76.50;;;;;;1997646;28;19912;-73
2022/08/01 04:41:35;;;;;;;;;;;21.40;76.50;;;;;;1997214;28;19916;-73
2022/08/01 04:42:34;;;;;;;;;;;21.30;76.50;;;;;;1998049;28;19906;-73
2022/08/01 04:43:33;;;;;;;;;;;21.30;76.50;;;;;;1997882;28;19906;-73
2022/08/01 04:44:32;;;;;;;;;;;21.40;76.60;;;;;;1997749;28;20000;-73
2022/08/01 04:45:31;;;;;;;;;;;21.40;76.50;;;;;;1989702;28;19973;-73
2022/08/01 04:46:29;;;;;;;;;;;21.40;76.60;;;;;;1989633;28;19992;-73
2022/08/01 04:47:30;;;;;;;;;;;21.30;76.50;;;;;;1997095;28;19906;-73
2022/08/01 04:48:29;;;;;;;;;;;21.30;76.50;;;;;;1997767;28;20353;-73
2022/08/01 04:49:30;;;;;;;;;;;21.30;76.50;;;;;;1997830;28;19909;-73
2022/08/01 04:50:29;;;;;;;;;;;21.40;76.50;;;;;;1997769;28;19971;-72
2022/08/01 04:51:27;;;;;;;;;;;21.40;76.50;;;;;;1997812;28;20017;-72
2022/08/01 04:52:32;;;;;;;;;;;21.40;76.50;;;;;;1997839;28;20377;-72
2022/08/01 04:53:32;;;;;;;;;;;21.40;76.60;;;;;;1997727;28;19910;-73
2022/08/01 04:54:33;;;;;;;;;;;21.40;76.60;;;;;;1997831;28;19905;-73
2022/08/01 04:55:32;;;;;;;;;;;21.30;76.50;;;;;;1997852;28;19916;-73
2022/08/01 04:56:33;;;;;;;;;;;21.40;76.60;;;;;;1997674;28;19913;-73
2022/08/01 04:57:36;;;;;;;;;;;21.40;76.50;;;;;;1997050;28;20054;-73
2022/08/01 04:58:34;;;;;;;;;;;21.40;76.60;;;;;;1997291;28;19949;-72
2022/08/01 04:59:41;;;;;;;;;;;21.40;76.50;;;;;;1997792;28;19913;-73
2022/08/01 05:00:40;;;;;;;;;;;21.40;76.60;;;;;;1997642;28;19913;-72
2022/08/01 05:01:38;;;;;;;;;;;21.40;76.70;;;;;;1997799;28;19905;-72
2022/08/01 05:02:37;;;;;;;;;;;21.40;76.60;;;;;;1997765;28;20000;-73
2022/08/01 05:03:36;;;;;;;;;;;21.40;76.60;;;;;;1997794;28;19905;-73
2022/08/01 05:04:35;;;;;;;;;;;21.40;76.50;;;;;;1997873;28;19906;-73
2022/08/01 05:05:33;;;;;;;;;;;21.40;76.60;;;;;;1997949;28;19909;-72
2022/08/01 05:06:32;;;;;;;;;;;21.30;76.50;;;;;;1998523;28;20395;-73
2022/08/01 05:07:30;;;;;;;;;;;21.40;76.60;;;;;;1998201;28;19928;-72
2022/08/01 05:08:30;;;;;;;;;;;21.40;76.60;;;;;;2005292;28;20414;-72
2022/08/01 05:09:30;;;;;;;;;;;21.40;76.60;;;;;;2005337;28;19905;-73
2022/08/01 05:10:29;;;;;;;;;;;21.40;76.60;;;;;;1998103;28;19913;-73
2022/08/01 05:11:29;;;;;;;;;;;21.40;76.60;;;;;;2005171;28;19949;-73
2022/08/01 05:12:27;;;;;;;;;;;21.40;76.70;;;;;;2005220;28;19952;-73
2022/08/01 05:13:26;;;;;;;;;;;21.30;76.50;;;;;;1998215;28;19906;-72
2022/08/01 05:14:25;;;;;;;;;;;21.40;76.60;;;;;;1998213;28;19906;-72
2022/08/01 05:15:24;;;;;;;;;;;21.30;76.50;;;;;;1997902;28;19925;-73
2022/08/01 05:16:22;;;;;;;;;;;21.40;76.60;;;;;;1997965;28;19937;-73
2022/08/01 05:17:21;;;;;;;;;;;21.40;76.60;;;;;;1998181;28;19929;-72
2022/08/01 05:18:19;;;;;;;;;;;21.40;76.60;;;;;;1997977;28;19984;-74
2022/08/01 05:19:18;;;;;;;;;;;21.40;76.70;;;;;;1998004;28;20008;-72
2022/08/01 05:20:16;;;;;;;;;;;21.40;76.60;;;;;;1998164;28;19906;-72
2022/08/01 05:21:15;;;;;;;;;;;21.40;76.70;;;;;;1998079;28;19912;-73
2022/08/01 05:22:13;;;;;;;;;;;21.40;76.70;;;;;;1998885;28;19906;-73
2022/08/01 05:23:12;;;;;;;;;;;21.40;76.60;;;;;;1998240;28;19996;-72
2022/08/01 05:24:10;;;;;;;;;;;21.40;76.70;;;;;;1997984;28;20332;-72
2022/08/01 05:25:10;;;;;;;;;;;21.40;76.60;;;;;;1998046;28;19906;-72
2022/08/01 05:26:13;;;;;;;;;;;21.40;76.70;;;;;;1999583;28;20000;-72
2022/08/01 05:27:13;;;;;;;;;;;21.40;76.70;;;;;;2000210;28;19910;-72
2022/08/01 05:28:11;;;;;;;;;;;21.40;76.60;;;;;;2006769;28;19921;-72
2022/08/01 05:29:10;;;;;;;;;;;21.40;76.60;;;;;;2006549;28;19951;-73
2022/08/01 05:30:09;;;;;;;;;;;21.40;76.70;;;;;;2004893;28;19948;-70
2022/08/01 05:31:07;;;;;;;;;;;21.40;76.80;;;;;;2006196;28;19906;-70
2022/08/01 05:32:06;;;;;;;;;;;21.40;76.80;;;;;;2005021;28;19949;-70
2022/08/01 05:33:04;;;;;;;;;;;21.30;76.60;;;;;;2005444;28;19905;-70
2022/08/01 05:34:04;;;;;;;;;;;21.40;76.70;;;;;;2006001;28;19905;-71
2022/08/01 05:35:03;;;;;;;;;;;21.40;76.70;;;;;;2005908;28;19913;-72
2022/08/01 05:36:02;;;;;;;;;;;21.40;76.70;;;;;;2006628;28;19910;-72
2022/08/01 05:37:01;;;;;;;;;;;21.40;76.60;;;;;;2006762;28;19928;-73
2022/08/01 05:37:59;;;;;;;;;;;21.40;76.70;;;;;;2004680;28;19945;-73
2022/08/01 05:38:58;;;;;;;;;;;21.40;76.70;;;;;;2000861;28;19913;-72
2022/08/01 05:39:56;;;;;;;;;;;21.40;76.70;;;;;;2006862;28;19900;-72
2022/08/01 05:40:54;;;;;;;;;;;21.40;76.70;;;;;;2006759;28;19977;-72
2022/08/01 05:41:53;;;;;;;;;;;21.30;76.60;;;;;;2006920;28;19913;-71
2022/08/01 05:42:51;;;;;;;;;;;21.40;76.50;;;;;;2006705;28;20026;-71
2022/08/01 05:43:50;;;;;;;;;;;21.40;76.70;;;;;;2006568;28;19906;-71
2022/08/01 05:44:50;;;;;;;;;;;21.40;76.70;;;;;;2007222;28;19913;-70
2022/08/01 05:45:48;;;;;;;;;;;21.40;76.80;;;;;;2006909;28;19961;-71
2022/08/01 05:46:47;;;;;;;;;;;21.40;76.70;;;;;;2007015;28;19900;-71
2022/08/01 05:47:45;;;;;;;;;;;21.40;76.80;;;;;;2007050;28;19914;-72
2022/08/01 05:48:43;;;;;;;;;;;21.40;76.80;;;;;;2007012;28;19893;-73
2022/08/01 05:49:42;;;;;;;;;;;21.40;76.80;;;;;;2007131;28;19965;-72
2022/08/01 05:50:41;;;;;;;;;;;21.40;76.80;;;;;;2004488;28;20318;-74
2022/08/01 05:51:39;;;;;;;;;;;21.40;76.80;;;;;;2003994;28;19897;-72